createdAt,value
2022-08-18T00:00:29.610Z,96318.78
2022-08-18T00:03:12.321Z,96307.09
2022-08-18T00:05:47.623Z,96312.97
2022-08-18T00:08:14.322Z,96300.94
2022-08-18T00:10:42.479Z,96301.19
2022-08-18T00:13:09.209Z,96304.19
2022-08-18T00:15:41.467Z,96314.63
2022-08-18T00:18:15.523Z,96320.94
2022-08-18T00:20:42.164Z,96324.06
2022-08-18T00:23:09.518Z,96326.75
2022-08-18T00:25:36.215Z,96323.59
2022-08-18T00:28:03.488Z,96329.19
2022-08-18T00:30:30.057Z,96322.50
2022-08-18T00:33:01.039Z,96320.41
2022-08-18T00:35:31.595Z,96313.94
2022-08-18T00:38:01.982Z,96309.09
2022-08-18T00:40:37.646Z,96315.50
2022-08-18T00:43:07.859Z,96308.06
2022-08-18T00:45:38.802Z,96307.56
2022-08-18T00:48:07.422Z,96308.38
2022-08-18T00:50:46.609Z,96316.63
2022-08-18T00:53:19.008Z,96318.94
2022-08-18T00:55:53.830Z,96310.41
2022-08-18T00:58:28.396Z,96314.19
2022-08-18T01:00:55.210Z,96310.94
2022-08-18T01:03:24.671Z,96307.38
2022-08-18T01:06:06.845Z,96304.75
2022-08-18T01:08:33.893Z,96307.16
2022-08-18T01:11:02.398Z,96304.69
2022-08-18T01:13:33.022Z,96322.41
2022-08-18T01:16:20.491Z,96391.88
2022-08-18T01:19:05.867Z,96392.00
2022-08-18T01:21:51.949Z,96348.94
2022-08-18T01:24:43.287Z,96381.28
2022-08-18T01:27:11.099Z,96388.84
2022-08-18T01:29:41.582Z,96380.06
2022-08-18T01:32:11.121Z,96378.47
2022-08-18T01:34:37.780Z,96389.22
2022-08-18T01:37:05.714Z,96379.84
2022-08-18T01:41:11.075Z,96368.41
2022-08-18T01:42:19.298Z,96383.44
2022-08-18T01:44:51.193Z,96388.53
2022-08-18T01:47:18.697Z,96390.69
2022-08-18T01:49:45.861Z,96384.59
2022-08-18T01:52:22.000Z,96383.50
2022-08-18T01:54:49.207Z,96393.88
2022-08-18T01:57:16.914Z,96392.88
2022-08-18T01:59:43.602Z,96391.22
2022-08-18T02:02:18.426Z,96403.56
2022-08-18T02:04:46.718Z,96399.22
2022-08-18T02:07:14.983Z,96405.06
2022-08-18T02:09:43.802Z,96398.22
2022-08-18T02:12:11.559Z,96395.22
2022-08-18T02:14:39.405Z,96385.06
2022-08-18T02:17:09.496Z,96379.72
2022-08-18T02:19:38.878Z,96386.94
2022-08-18T02:22:08.375Z,96385.84
2022-08-18T02:24:35.378Z,96383.38
2022-08-18T02:27:01.971Z,96379.91
2022-08-18T02:29:28.729Z,96380.94
2022-08-18T02:31:55.957Z,96379.94
2022-08-18T02:34:25.523Z,96373.50
2022-08-18T02:36:52.354Z,96374.75
2022-08-18T02:39:18.955Z,96384.19
2022-08-18T02:41:45.627Z,96387.38
2022-08-18T02:44:12.440Z,96386.81
2022-08-18T02:46:39.375Z,96378.28
2022-08-18T02:49:08.212Z,96379.91
2022-08-18T02:51:35.126Z,96376.97
2022-08-18T02:54:01.807Z,96379.38
2022-08-18T02:56:39.981Z,96369.22
2022-08-18T02:59:14.126Z,96372.09
2022-08-18T03:01:44.111Z,96377.44
2022-08-18T03:04:15.604Z,96376.66
2022-08-18T03:06:42.390Z,96377.56
2022-08-18T03:09:11.793Z,96390.50
2022-08-18T03:11:39.075Z,96387.78
2022-08-18T03:14:06.294Z,96384.94
2022-08-18T03:16:48.788Z,96388.88
2022-08-18T03:19:23.893Z,96390.47
2022-08-18T03:21:50.673Z,96389.94
2022-08-18T03:24:22.362Z,96386.53
2022-08-18T03:26:50.000Z,96377.13
2022-08-18T03:29:16.918Z,96378.19
2022-08-18T03:31:44.554Z,96381.75
2022-08-18T03:34:12.130Z,96377.38
2022-08-18T03:36:39.672Z,96378.72
2022-08-18T03:39:09.888Z,96378.25
2022-08-18T03:41:43.805Z,96383.28
2022-08-18T03:44:27.919Z,96388.34
2022-08-18T03:46:54.642Z,96388.91
2022-08-18T03:49:21.313Z,96384.03
2022-08-18T03:51:48.870Z,96375.25
2022-08-18T03:54:18.038Z,96377.44
2022-08-18T03:56:47.235Z,96372.00
2022-08-18T03:59:23.566Z,96378.66
2022-08-18T04:01:52.126Z,96376.53
2022-08-18T04:04:21.815Z,96380.31
2022-08-18T04:06:54.307Z,96372.72
2022-08-18T04:09:23.027Z,96361.50
2022-08-18T04:11:52.389Z,96362.56
2022-08-18T04:14:21.901Z,96369.25
2022-08-18T04:16:49.286Z,96377.75
2022-08-18T04:19:27.476Z,96374.06
2022-08-18T04:21:57.118Z,96377.75
2022-08-18T04:24:26.396Z,96368.16
2022-08-18T04:26:53.771Z,96373.81
2022-08-18T04:29:21.806Z,96374.91
2022-08-18T04:31:50.217Z,96378.56
2022-08-18T04:34:18.223Z,96378.59
2022-08-18T04:36:44.971Z,96379.09
2022-08-18T04:39:13.188Z,96372.19
2022-08-18T04:41:43.632Z,96373.28
2022-08-18T04:44:12.397Z,96378.63
2022-08-18T04:46:46.377Z,96387.75
2022-08-18T04:49:13.149Z,96392.47
2022-08-18T04:52:30.857Z,96385.59
2022-08-18T04:54:52.805Z,96392.28
2022-08-18T04:57:21.258Z,96394.13
2022-08-18T04:59:50.591Z,96401.13
2022-08-18T05:02:18.585Z,96386.19
2022-08-18T05:04:47.356Z,96388.28
2022-08-18T05:07:18.808Z,96384.00
2022-08-18T05:09:45.702Z,96387.38
2022-08-18T05:12:14.971Z,96379.19
2022-08-18T05:14:44.666Z,96393.06
2022-08-18T05:17:12.347Z,96409.59
2022-08-18T05:19:42.262Z,96420.84
2022-08-18T05:22:11.213Z,96416.00
2022-08-18T05:24:39.765Z,96417.66
2022-08-18T05:27:07.733Z,96414.78
2022-08-18T05:29:41.889Z,96420.97
2022-08-18T05:32:36.916Z,96408.75
2022-08-18T05:35:12.579Z,96411.88
2022-08-18T05:38:15.633Z,96402.22
2022-08-18T05:40:46.199Z,96407.72
2022-08-18T05:43:15.292Z,96419.06
2022-08-18T05:45:42.239Z,96410.31
2022-08-18T05:48:08.904Z,96405.81
2022-08-18T05:50:37.964Z,96397.56
2022-08-18T05:53:14.986Z,96396.78
2022-08-18T05:56:07.407Z,96389.59
2022-08-18T05:58:47.105Z,96387.50
2022-08-18T06:01:18.743Z,96376.81
2022-08-18T06:03:56.413Z,96371.47
2022-08-18T06:06:29.664Z,96367.19
2022-08-18T06:09:40.479Z,96380.59
2022-08-18T06:12:20.303Z,96388.28
2022-08-18T06:14:47.069Z,96389.69
2022-08-18T06:17:51.461Z,96395.56
2022-08-18T06:21:11.919Z,96399.34
2022-08-18T06:23:51.515Z,96407.28
2022-08-18T06:26:37.498Z,96406.31
2022-08-18T06:29:24.923Z,96406.84
2022-08-18T06:32:03.482Z,96404.19
2022-08-18T06:34:34.368Z,96407.88
2022-08-18T06:37:07.419Z,96402.63
2022-08-18T06:39:52.453Z,96398.88
2022-08-18T06:42:21.684Z,96402.63
2022-08-18T06:44:53.019Z,96403.97
2022-08-18T06:47:19.546Z,96404.78
2022-08-18T06:49:54.943Z,96406.41
2022-08-18T06:52:29.191Z,96411.22
2022-08-18T06:54:59.516Z,96402.63
2022-08-18T06:57:28.044Z,96409.34
2022-08-18T07:00:00.525Z,96401.50
2022-08-18T07:02:43.572Z,96410.13
2022-08-18T07:05:19.774Z,96409.72
2022-08-18T07:08:00.514Z,96410.56
2022-08-18T07:10:40.261Z,96400.97
2022-08-18T07:13:30.100Z,96413.38
2022-08-18T07:16:40.301Z,96418.34
2022-08-18T07:19:16.559Z,96435.47
2022-08-18T07:21:44.319Z,96430.78
2022-08-18T07:24:25.169Z,96419.47
2022-08-18T07:27:09.236Z,96421.03
2022-08-18T07:29:40.523Z,96422.56
2022-08-18T07:32:21.068Z,96415.66
2022-08-18T07:34:53.822Z,96410.25
2022-08-18T07:37:29.317Z,96403.75
2022-08-18T07:40:45.244Z,96427.53
2022-08-18T07:43:50.248Z,96422.13
2022-08-18T07:46:32.579Z,96419.28
2022-08-18T07:49:00.588Z,96421.72
2022-08-18T07:51:43.706Z,96421.00
2022-08-18T07:54:47.840Z,96417.91
2022-08-18T07:57:20.513Z,96417.59
2022-08-18T08:00:10.546Z,96426.16
2022-08-18T08:02:56.683Z,96424.53
2022-08-18T08:05:40.522Z,96419.88
2022-08-18T08:08:25.931Z,96410.88
2022-08-18T08:11:01.556Z,96419.63
2022-08-18T08:14:13.614Z,96415.69
2022-08-18T08:16:48.853Z,96411.22
2022-08-18T08:19:59.102Z,96404.03
2022-08-18T08:22:49.760Z,96397.81
2022-08-18T08:25:45.214Z,96395.50
2022-08-18T08:28:28.139Z,96394.03
2022-08-18T08:34:06.007Z,96392.09
2022-08-18T08:36:37.416Z,96395.00
2022-08-18T08:39:06.726Z,96393.06
2022-08-18T08:41:49.708Z,96386.47
2022-08-18T08:44:34.418Z,96379.09
2022-08-18T08:47:15.402Z,96372.63
2022-08-18T08:50:00.872Z,96357.94
2022-08-18T08:52:40.538Z,96360.31
2022-08-18T08:55:21.453Z,96353.78
2022-08-18T08:57:53.719Z,96365.59
2022-08-18T09:00:21.256Z,96363.88
2022-08-18T09:03:10.558Z,96357.63
2022-08-18T09:06:00.101Z,96350.03
2022-08-18T09:08:37.152Z,96343.25
2022-08-18T09:11:32.272Z,96349.97
2022-08-18T09:14:15.593Z,96340.00
2022-08-18T09:17:17.250Z,96333.13
2022-08-18T09:20:05.599Z,96335.31
2022-08-18T09:22:50.002Z,96329.53
2022-08-18T09:25:34.677Z,96326.50
2022-08-18T09:28:12.064Z,96334.91
2022-08-18T09:30:47.501Z,96331.13
2022-08-18T09:33:19.735Z,96334.38
2022-08-18T09:35:55.434Z,96329.16
2022-08-18T09:38:47.097Z,96322.09
2022-08-18T09:41:38.009Z,96309.28
2022-08-18T09:44:17.729Z,96302.25
2022-08-18T09:46:48.403Z,96302.91
2022-08-18T09:49:27.075Z,96299.09
2022-08-18T09:52:02.790Z,96290.78
2022-08-18T09:54:34.216Z,96297.31
2022-08-18T09:57:19.261Z,96296.06
2022-08-18T09:59:47.681Z,96293.50
2022-08-18T10:02:32.022Z,96295.41
2022-08-18T10:05:20.147Z,96300.81
2022-08-18T10:07:53.325Z,96308.72
2022-08-18T10:13:38.881Z,96301.28
2022-08-18T10:16:31.953Z,96297.38
2022-08-18T10:19:39.700Z,96285.06
2022-08-18T10:22:09.938Z,96299.97
2022-08-18T10:24:56.511Z,96301.47
2022-08-18T10:27:44.494Z,96303.69
2022-08-18T10:30:34.323Z,96308.22
2022-08-18T10:33:17.691Z,96306.84
2022-08-18T10:35:59.829Z,96307.06
2022-08-18T10:38:49.029Z,96314.34
2022-08-18T10:41:37.407Z,96312.09
2022-08-18T10:44:28.315Z,96327.50
2022-08-18T10:46:58.407Z,96324.22
2022-08-18T10:49:27.722Z,96324.13
2022-08-18T10:52:12.899Z,96329.84
2022-08-18T10:55:06.349Z,96330.41
2022-08-18T10:57:59.088Z,96333.06
2022-08-18T11:00:39.536Z,96313.66
2022-08-18T11:06:14.662Z,96297.72
2022-08-18T11:08:55.006Z,96300.56
2022-08-18T11:11:53.171Z,96298.34
2022-08-18T11:14:37.864Z,96287.56
2022-08-18T11:17:26.415Z,96289.88
2022-08-18T11:19:54.047Z,96304.34
2022-08-18T11:22:31.598Z,96296.00
2022-08-18T11:25:01.544Z,96294.03
2022-08-18T11:27:35.781Z,96274.75
2022-08-18T11:30:05.815Z,96279.72
2022-08-18T11:32:36.705Z,96273.84
2022-08-18T11:35:11.374Z,96260.56
2022-08-18T11:37:53.377Z,96255.97
2022-08-18T11:41:02.299Z,96246.84
2022-08-18T11:43:13.302Z,96248.81
2022-08-18T11:45:54.220Z,96251.41
2022-08-18T11:51:17.543Z,96238.00
2022-08-18T11:56:40.139Z,96253.03
2022-08-18T11:59:25.559Z,96254.84
2022-08-18T12:02:18.336Z,96247.66
2022-08-18T12:04:51.943Z,96240.09
2022-08-18T12:07:28.700Z,96235.09
2022-08-18T12:10:26.306Z,96232.72
2022-08-18T12:12:57.695Z,96234.63
2022-08-18T12:15:44.166Z,96247.25
2022-08-18T12:18:26.373Z,96235.47
2022-08-18T12:20:57.434Z,96222.94
2022-08-18T12:23:24.394Z,96216.75
2022-08-18T12:25:51.547Z,96229.06
2022-08-18T12:28:19.692Z,96222.03
2022-08-18T12:30:57.155Z,96227.66
2022-08-18T12:33:47.683Z,96224.50
2022-08-18T12:36:15.683Z,96226.34
2022-08-18T12:38:45.026Z,96217.16
2022-08-18T12:41:23.537Z,96212.50
2022-08-18T12:43:58.833Z,96204.56
2022-08-18T12:46:26.750Z,96197.06
2022-08-18T12:48:53.470Z,96192.94
2022-08-18T12:51:20.896Z,96175.28
2022-08-18T12:53:58.196Z,96166.47
2022-08-18T12:56:31.129Z,96171.25
2022-08-18T12:59:00.608Z,96165.69
2022-08-18T13:01:32.542Z,96173.91
2022-08-18T13:04:11.161Z,96173.22
2022-08-18T13:06:59.208Z,96161.78
2022-08-18T13:09:35.170Z,96158.84
2022-08-18T13:12:14.622Z,96148.53
2022-08-18T13:14:43.393Z,96152.81
2022-08-18T13:17:15.327Z,96135.22
2022-08-18T13:19:57.136Z,96146.56
2022-08-18T13:22:32.080Z,96144.91
2022-08-18T13:25:00.400Z,96150.31
2022-08-18T13:27:27.172Z,96145.31
2022-08-18T13:30:00.781Z,96146.47
2022-08-18T13:32:31.057Z,96141.41
2022-08-18T13:35:09.165Z,96139.38
2022-08-18T13:37:41.618Z,96147.91
2022-08-18T13:40:12.625Z,96134.31
2022-08-18T13:42:57.850Z,96134.97
2022-08-18T13:45:26.210Z,96138.19
2022-08-18T13:47:53.017Z,96134.28
2022-08-18T13:50:21.017Z,96133.34
2022-08-18T13:53:00.896Z,96135.38
2022-08-18T13:55:29.213Z,96127.66
2022-08-18T13:57:56.341Z,96148.63
2022-08-18T14:00:29.856Z,96133.63
2022-08-18T14:02:59.002Z,96139.50
2022-08-18T14:05:36.832Z,96136.88
2022-08-18T14:08:18.893Z,96148.53
2022-08-18T14:10:51.059Z,96146.19
2022-08-18T14:13:20.791Z,96138.97
2022-08-18T14:15:55.009Z,96134.63
2022-08-18T14:18:29.062Z,96126.78
2022-08-18T14:21:16.921Z,96121.41
2022-08-18T14:24:10.582Z,96116.47
2022-08-18T14:26:50.911Z,96112.78
2022-08-18T14:29:45.438Z,96121.47
2022-08-18T14:32:07.219Z,96124.09
2022-08-18T14:34:33.883Z,96120.44
2022-08-18T14:37:52.442Z,96114.94
2022-08-18T14:40:35.003Z,96105.44
2022-08-18T14:43:08.008Z,96113.47
2022-08-18T14:45:35.755Z,96107.34
2022-08-18T14:48:38.602Z,96105.28
2022-08-18T14:55:03.939Z,96093.09
2022-08-18T14:58:16.202Z,96100.00
2022-08-18T15:01:28.190Z,96087.28
2022-08-18T15:07:47.944Z,96070.81
2022-08-18T15:10:47.907Z,96068.97
2022-08-18T15:13:15.307Z,96065.19
2022-08-18T15:15:51.747Z,96054.47
2022-08-18T15:18:22.844Z,96047.09
2022-08-18T15:21:35.102Z,96047.56
2022-08-18T15:24:20.287Z,96047.25
2022-08-18T15:26:51.863Z,96041.75
2022-08-18T15:29:27.951Z,96046.03
2022-08-18T15:32:01.926Z,96040.56
2022-08-18T15:34:31.769Z,96035.34
2022-08-18T15:37:09.811Z,96032.63
2022-08-18T15:39:36.977Z,96031.28
2022-08-18T15:42:10.617Z,96032.34
2022-08-18T15:44:38.094Z,96032.06
2022-08-18T15:47:05.830Z,96024.84
2022-08-18T15:49:36.175Z,96029.03
2022-08-18T15:52:03.007Z,96022.56
2022-08-18T15:54:29.565Z,96016.31
2022-08-18T15:56:58.409Z,96012.13
2022-08-18T15:59:34.251Z,96007.72
2022-08-18T16:02:11.787Z,96004.69
2022-08-18T16:04:41.247Z,96011.44
2022-08-18T16:07:10.030Z,96008.09
2022-08-18T16:09:36.926Z,96001.88
2022-08-18T16:12:04.002Z,96007.28
2022-08-18T16:14:32.067Z,96013.19
2022-08-18T16:17:00.298Z,96005.91
2022-08-18T16:19:30.145Z,96009.13
2022-08-18T16:21:58.255Z,96009.22
2022-08-18T16:24:25.425Z,96006.03
2022-08-18T16:26:52.207Z,96009.47
2022-08-18T16:29:19.423Z,96005.56
2022-08-18T16:31:46.589Z,96010.22
2022-08-18T16:34:13.247Z,96008.50
2022-08-18T16:36:40.002Z,96008.41
2022-08-18T16:39:06.560Z,96013.69
2022-08-18T16:41:33.896Z,96006.00
2022-08-18T16:44:00.572Z,96010.09
2022-08-18T16:46:28.287Z,96007.47
2022-08-18T16:48:57.564Z,96005.09
2022-08-18T16:51:26.142Z,96009.41
2022-08-18T16:53:54.515Z,96006.81
2022-08-18T16:56:26.832Z,96006.72
2022-08-18T16:59:12.716Z,96009.41
2022-08-18T17:02:12.089Z,96008.16
2022-08-18T17:04:38.711Z,96005.63
2022-08-18T17:07:06.076Z,95999.75
2022-08-18T17:09:34.422Z,96008.66
2022-08-18T17:12:01.829Z,96000.53
2022-08-18T17:14:31.273Z,95995.44
2022-08-18T17:17:00.526Z,96001.41
2022-08-18T17:19:31.368Z,95999.78
2022-08-18T17:21:58.008Z,95984.69
2022-08-18T17:24:31.731Z,95986.72
2022-08-18T17:27:27.316Z,95982.47
2022-08-18T17:30:07.177Z,95985.84
2022-08-18T17:32:49.744Z,95984.25
2022-08-18T17:35:28.639Z,95976.94
2022-08-18T17:38:07.853Z,95977.72
2022-08-18T17:40:46.402Z,95979.94
2022-08-18T17:43:17.395Z,95982.91
2022-08-18T17:45:45.567Z,95975.91
2022-08-18T17:48:22.908Z,95974.75
2022-08-18T17:51:31.302Z,95975.22
2022-08-18T17:54:09.803Z,95968.38
2022-08-18T17:56:43.509Z,95974.00
2022-08-18T17:59:45.432Z,95974.63
2022-08-18T18:02:29.759Z,95980.00
2022-08-18T18:05:02.487Z,95972.13
2022-08-18T18:07:38.634Z,95991.88
2022-08-18T18:10:27.464Z,95987.56
2022-08-18T18:13:16.391Z,96008.75
2022-08-18T18:16:11.835Z,96013.16
2022-08-18T18:18:43.352Z,96013.44
2022-08-18T18:21:16.182Z,96013.75
2022-08-18T18:23:53.003Z,96021.78
2022-08-18T18:26:33.615Z,96031.53
2022-08-18T18:29:32.323Z,96026.16
2022-08-18T18:32:04.491Z,96032.63
2022-08-18T18:34:39.487Z,96028.69
2022-08-18T18:37:27.651Z,96026.09
2022-08-18T18:40:06.729Z,96028.75
2022-08-18T18:42:36.056Z,96024.34
2022-08-18T18:45:09.452Z,96024.38
2022-08-18T18:47:47.489Z,96034.34
2022-08-18T18:50:35.515Z,96037.53
2022-08-18T18:53:02.343Z,96050.94
2022-08-18T18:55:35.940Z,96052.03
2022-08-18T18:58:22.557Z,96057.91
2022-08-18T19:00:55.996Z,96060.63
2022-08-18T19:03:37.660Z,96079.47
2022-08-18T19:06:36.695Z,96093.19
2022-08-18T19:09:31.737Z,96103.41
2022-08-18T19:12:33.321Z,96106.56
2022-08-18T19:15:06.666Z,96114.44
2022-08-18T19:17:51.860Z,96139.97
2022-08-18T19:20:24.913Z,96153.63
2022-08-18T19:23:06.504Z,96176.06
2022-08-18T19:25:41.448Z,96187.00
2022-08-18T19:28:16.550Z,96216.28
2022-08-18T19:30:47.499Z,96226.03
2022-08-18T19:33:25.792Z,96239.97
2022-08-18T19:36:19.372Z,96238.53
2022-08-18T19:39:03.207Z,96246.94
2022-08-18T19:41:39.545Z,96235.47
2022-08-18T19:44:29.146Z,96241.34
2022-08-18T19:47:10.269Z,96240.09
2022-08-18T19:49:48.841Z,96244.41
2022-08-18T19:52:53.812Z,96255.13
2022-08-18T19:55:33.031Z,96262.06
2022-08-18T19:58:25.179Z,96262.38
2022-08-18T20:01:21.296Z,96260.00
2022-08-18T20:03:58.995Z,96260.06
2022-08-18T20:06:44.605Z,96257.91
2022-08-18T20:09:50.049Z,96247.25
2022-08-18T20:12:42.108Z,96253.94
2022-08-18T20:15:19.237Z,96251.00
2022-08-18T20:17:58.798Z,96249.91
2022-08-18T20:20:33.301Z,96243.19
2022-08-18T20:23:01.583Z,96239.19
2022-08-18T20:25:38.858Z,96246.16
2022-08-18T20:28:11.779Z,96255.28
2022-08-18T20:31:12.882Z,96249.34
2022-08-18T20:34:04.050Z,96252.03
2022-08-18T20:36:36.711Z,96253.09
2022-08-18T20:39:32.380Z,96258.47
2022-08-18T20:42:04.857Z,96253.91
2022-08-18T20:44:36.613Z,96255.25
2022-08-18T20:47:37.395Z,96249.88
2022-08-18T20:50:37.853Z,96250.66
2022-08-18T20:53:18.286Z,96250.66
2022-08-18T20:56:32.416Z,96249.59
2022-08-18T20:59:22.883Z,96251.13
2022-08-18T21:02:20.584Z,96235.63
2022-08-18T21:04:50.363Z,96248.44
2022-08-18T21:07:57.906Z,96250.84
2022-08-18T21:10:29.820Z,96249.19
2022-08-18T21:13:00.115Z,96240.31
2022-08-18T21:15:35.902Z,96243.81
2022-08-18T21:18:06.652Z,96237.91
2022-08-18T21:20:34.329Z,96238.41
2022-08-18T21:23:07.383Z,96238.88
2022-08-18T21:25:35.002Z,96237.84
2022-08-18T21:28:04.054Z,96232.50
2022-08-18T21:30:31.904Z,96229.56
2022-08-18T21:32:58.599Z,96236.13
2022-08-18T21:35:30.266Z,96238.81
2022-08-18T21:37:58.426Z,96246.94
2022-08-18T21:40:49.176Z,96259.34
2022-08-18T21:43:49.057Z,96267.03
2022-08-18T21:46:28.842Z,96275.44
2022-08-18T21:49:00.543Z,96278.03
2022-08-18T21:51:44.640Z,96275.16
2022-08-18T21:54:19.152Z,96272.38
2022-08-18T21:56:45.973Z,96278.22
2022-08-18T21:59:14.185Z,96282.63
2022-08-18T22:01:56.463Z,96282.97
2022-08-18T22:04:47.386Z,96271.53
2022-08-18T22:07:34.812Z,96264.75
2022-08-18T22:10:42.506Z,96256.84
2022-08-18T22:13:46.186Z,96256.84
2022-08-18T22:16:25.571Z,96251.72
2022-08-18T22:18:52.157Z,96242.09
2022-08-18T22:21:38.744Z,96235.34
2022-08-18T22:24:20.249Z,96234.56
2022-08-18T22:27:12.430Z,96226.28
2022-08-18T22:30:03.925Z,96225.47
2022-08-18T22:32:36.429Z,96230.34
2022-08-18T22:35:05.885Z,96234.38
2022-08-18T22:37:40.139Z,96249.41
2022-08-18T22:40:12.277Z,96259.75
2022-08-18T22:42:40.626Z,96259.75
2022-08-18T22:45:13.826Z,96265.38
2022-08-18T22:47:47.539Z,96271.53
2022-08-18T22:50:14.427Z,96279.88
2022-08-18T22:52:44.194Z,96281.94
2022-08-18T22:55:14.622Z,96286.38
2022-08-18T22:57:44.456Z,96289.72
2022-08-18T23:00:17.357Z,96284.66
2022-08-18T23:02:47.864Z,96296.69
2022-08-18T23:05:15.225Z,96289.34
2022-08-18T23:07:42.675Z,96284.16
2022-08-18T23:10:13.435Z,96285.44
2022-08-18T23:12:43.129Z,96288.59
2022-08-18T23:15:13.375Z,96286.25
2022-08-18T23:17:41.836Z,96292.91
2022-08-18T23:20:12.544Z,96287.13
2022-08-18T23:22:45.606Z,96288.75
2022-08-18T23:25:13.312Z,96286.03
2022-08-18T23:27:40.989Z,96279.31
2022-08-18T23:30:08.346Z,96277.56
2022-08-18T23:32:34.991Z,96265.81
2022-08-18T23:35:02.480Z,96253.28
2022-08-18T23:37:29.169Z,96253.38
2022-08-18T23:39:55.985Z,96249.91
2022-08-18T23:42:23.297Z,96247.97
2022-08-18T23:44:50.365Z,96246.97
2022-08-18T23:47:21.040Z,96248.53
2022-08-18T23:49:48.374Z,96245.94
2022-08-18T23:52:15.141Z,96245.69
2022-08-18T23:54:41.870Z,96249.66
2022-08-18T23:57:08.567Z,96254.66
2022-08-18T23:59:35.267Z,96257.13
